sensor_id;sensor_type;location;lat;lon;timestamp;temperature;humidity
42885;DHT22;28534;48.100;11.584;2023-02-27T00:01:43;20.90;57.60
42885;DHT22;28534;48.100;11.584;2023-02-27T00:06:47;20.90;57.50
42885;DHT22;28534;48.100;11.584;2023-02-27T00:11:50;20.80;57.50
42885;DHT22;28534;48.100;11.584;2023-02-27T00:16:52;20.90;57.50
42885;DHT22;28534;48.100;11.584;2023-02-27T00:21:54;20.80;57.50
42885;DHT22;28534;48.100;11.584;2023-02-27T00:26:57;20.80;57.50
42885;DHT22;28534;48.100;11.584;2023-02-27T00:31:59;20.80;57.40
42885;DHT22;28534;48.100;11.584;2023-02-27T00:37:00;20.80;57.40
42885;DHT22;28534;48.100;11.584;2023-02-27T00:42:04;20.80;57.40
42885;DHT22;28534;48.100;11.584;2023-02-27T00:47:06;20.80;57.40
42885;DHT22;28534;48.100;11.584;2023-02-27T00:52:08;20.80;57.40
42885;DHT22;28534;48.100;11.584;2023-02-27T00:57:11;20.80;57.40
42885;DHT22;28534;48.100;11.584;2023-02-27T01:02:13;20.80;57.40
42885;DHT22;28534;48.100;11.584;2023-02-27T01:07:15;20.70;57.30
42885;DHT22;28534;48.100;11.584;2023-02-27T01:12:19;20.80;57.30
42885;DHT22;28534;48.100;11.584;2023-02-27T01:17:21;20.70;57.30
42885;DHT22;28534;48.100;11.584;2023-02-27T01:22:22;20.70;57.30
42885;DHT22;28534;48.100;11.584;2023-02-27T01:27:26;20.70;57.30
42885;DHT22;28534;48.100;11.584;2023-02-27T01:32:28;20.70;57.20
42885;DHT22;28534;48.100;11.584;2023-02-27T01:37:30;20.70;57.30
42885;DHT22;28534;48.100;11.584;2023-02-27T01:42:33;20.70;57.30
42885;DHT22;28534;48.100;11.584;2023-02-27T01:47:35;20.70;57.20
42885;DHT22;28534;48.100;11.584;2023-02-27T01:52:37;20.70;57.20
42885;DHT22;28534;48.100;11.584;2023-02-27T01:57:43;20.70;57.20
42885;DHT22;28534;48.100;11.584;2023-02-27T02:02:49;20.60;57.20
42885;DHT22;28534;48.100;11.584;2023-02-27T02:07:53;20.60;57.20
42885;DHT22;28534;48.100;11.584;2023-02-27T02:12:57;20.60;57.10
42885;DHT22;28534;48.100;11.584;2023-02-27T02:18:08;20.60;57.20
42885;DHT22;28534;48.100;11.584;2023-02-27T02:23:35;20.70;57.20
42885;DHT22;28534;48.100;11.584;2023-02-27T02:29:06;20.60;57.10
42885;DHT22;28534;48.100;11.584;2023-02-27T02:34:31;20.60;57.20
42885;DHT22;28534;48.100;11.584;2023-02-27T02:39:51;20.60;57.20
42885;DHT22;28534;48.100;11.584;2023-02-27T02:45:05;20.60;57.20
42885;DHT22;28534;48.100;11.584;2023-02-27T02:50:12;20.60;57.20
42885;DHT22;28534;48.100;11.584;2023-02-27T02:55:25;20.60;57.20
42885;DHT22;28534;48.100;11.584;2023-02-27T03:00:31;20.60;57.10
42885;DHT22;28534;48.100;11.584;2023-02-27T03:05:36;20.60;57.20
42885;DHT22;28534;48.100;11.584;2023-02-27T03:10:43;20.60;57.10
42885;DHT22;28534;48.100;11.584;2023-02-27T03:15:50;20.60;57.10
42885;DHT22;28534;48.100;11.584;2023-02-27T03:20:57;20.60;57.10
42885;DHT22;28534;48.100;11.584;2023-02-27T03:26:03;20.60;57.20
42885;DHT22;28534;48.100;11.584;2023-02-27T03:31:08;20.50;57.10
42885;DHT22;28534;48.100;11.584;2023-02-27T03:36:15;20.50;57.20
42885;DHT22;28534;48.100;11.584;2023-02-27T03:41:26;20.60;56.90
42885;DHT22;28534;48.100;11.584;2023-02-27T03:46:29;20.70;56.70
42885;DHT22;28534;48.100;11.584;2023-02-27T03:51:31;20.80;56.60
42885;DHT22;28534;48.100;11.584;2023-02-27T03:56:39;20.90;56.20
42885;DHT22;28534;48.100;11.584;2023-02-27T04:01:43;21.00;56.00
42885;DHT22;28534;48.100;11.584;2023-02-27T04:06:49;21.10;55.80
42885;DHT22;28534;48.100;11.584;2023-02-27T04:12:23;21.20;55.70
42885;DHT22;28534;48.100;11.584;2023-02-27T04:17:29;21.30;55.50
42885;DHT22;28534;48.100;11.584;2023-02-27T04:22:37;21.30;55.30
42885;DHT22;28534;48.100;11.584;2023-02-27T04:27:47;21.40;55.10
42885;DHT22;28534;48.100;11.584;2023-02-27T04:32:54;21.50;55.60
42885;DHT22;28534;48.100;11.584;2023-02-27T04:38:01;21.50;55.10
42885;DHT22;28534;48.100;11.584;2023-02-27T04:43:08;21.60;54.90
42885;DHT22;28534;48.100;11.584;2023-02-27T04:48:16;21.70;54.90
42885;DHT22;28534;48.100;11.584;2023-02-27T04:53:21;21.80;54.90
42885;DHT22;28534;48.100;11.584;2023-02-27T04:58:29;21.90;55.00
42885;DHT22;28534;48.100;11.584;2023-02-27T05:03:34;22.00;55.40
42885;DHT22;28534;48.100;11.584;2023-02-27T05:08:41;22.00;55.80
42885;DHT22;28534;48.100;11.584;2023-02-27T05:13:50;22.00;56.30
42885;DHT22;28534;48.100;11.584;2023-02-27T05:18:53;21.90;56.80
42885;DHT22;28534;48.100;11.584;2023-02-27T05:24:05;22.00;56.90
42885;DHT22;28534;48.100;11.584;2023-02-27T05:29:18;22.10;57.10
42885;DHT22;28534;48.100;11.584;2023-02-27T05:34:25;22.10;57.00
42885;DHT22;28534;48.100;11.584;2023-02-27T05:39:29;22.20;57.00
42885;DHT22;28534;48.100;11.584;2023-02-27T05:44:39;22.20;56.90
42885;DHT22;28534;48.100;11.584;2023-02-27T05:49:46;22.10;57.00
42885;DHT22;28534;48.100;11.584;2023-02-27T05:54:52;22.20;57.00
42885;DHT22;28534;48.100;11.584;2023-02-27T06:00:01;22.20;56.50
42885;DHT22;28534;48.100;11.584;2023-02-27T06:05:05;22.20;53.10
42885;DHT22;28534;48.100;11.584;2023-02-27T06:10:10;22.30;53.40
42885;DHT22;28534;48.100;11.584;2023-02-27T06:15:14;22.20;52.80
42885;DHT22;28534;48.100;11.584;2023-02-27T06:20:17;22.30;53.10
42885;DHT22;28534;48.100;11.584;2023-02-27T06:25:19;22.20;53.50
42885;DHT22;28534;48.100;11.584;2023-02-27T06:30:22;22.00;52.00
42885;DHT22;28534;48.100;11.584;2023-02-27T06:35:24;22.10;51.60
42885;DHT22;28534;48.100;11.584;2023-02-27T06:40:26;22.10;51.90
42885;DHT22;28534;48.100;11.584;2023-02-27T06:45:29;22.20;51.80
42885;DHT22;28534;48.100;11.584;2023-02-27T06:50:31;22.20;52.00
42885;DHT22;28534;48.100;11.584;2023-02-27T06:55:33;22.20;51.80
42885;DHT22;28534;48.100;11.584;2023-02-27T07:00:36;22.20;51.90
42885;DHT22;28534;48.100;11.584;2023-02-27T07:05:38;22.20;52.00
42885;DHT22;28534;48.100;11.584;2023-02-27T07:10:40;22.20;52.00
42885;DHT22;28534;48.100;11.584;2023-02-27T07:15:44;22.20;51.60
42885;DHT22;28534;48.100;11.584;2023-02-27T07:20:48;22.10;51.80
42885;DHT22;28534;48.100;11.584;2023-02-27T07:25:50;22.10;52.20
42885;DHT22;28534;48.100;11.584;2023-02-27T07:30:54;22.10;52.50
42885;DHT22;28534;48.100;11.584;2023-02-27T07:35:56;22.20;52.70
42885;DHT22;28534;48.100;11.584;2023-02-27T07:40:57;22.20;52.50
42885;DHT22;28534;48.100;11.584;2023-02-27T07:46:00;22.20;52.50
42885;DHT22;28534;48.100;11.584;2023-02-27T07:51:03;22.20;52.40
42885;DHT22;28534;48.100;11.584;2023-02-27T07:56:05;22.20;52.50
42885;DHT22;28534;48.100;11.584;2023-02-27T08:01:09;22.20;52.80
42885;DHT22;28534;48.100;11.584;2023-02-27T08:06:10;22.20;52.60
42885;DHT22;28534;48.100;11.584;2023-02-27T08:11:12;22.20;53.10
42885;DHT22;28534;48.100;11.584;2023-02-27T08:16:16;22.20;53.40
42885;DHT22;28534;48.100;11.584;2023-02-27T08:21:18;22.10;53.60
42885;DHT22;28534;48.100;11.584;2023-02-27T08:26:20;22.10;54.10
42885;DHT22;28534;48.100;11.584;2023-02-27T08:31:23;22.10;54.40
42885;DHT22;28534;48.100;11.584;2023-02-27T08:36:25;22.20;55.00
42885;DHT22;28534;48.100;11.584;2023-02-27T08:41:26;22.20;55.30
42885;DHT22;28534;48.100;11.584;2023-02-27T08:46:29;22.20;55.20
42885;DHT22;28534;48.100;11.584;2023-02-27T08:51:31;22.20;55.10
42885;DHT22;28534;48.100;11.584;2023-02-27T08:56:33;22.20;55.20
42885;DHT22;28534;48.100;11.584;2023-02-27T09:01:36;22.30;55.40
42885;DHT22;28534;48.100;11.584;2023-02-27T09:06:38;22.30;55.60
42885;DHT22;28534;48.100;11.584;2023-02-27T09:11:39;22.30;55.70
42885;DHT22;28534;48.100;11.584;2023-02-27T09:16:43;22.20;55.20
42885;DHT22;28534;48.100;11.584;2023-02-27T09:21:45;22.10;54.40
42885;DHT22;28534;48.100;11.584;2023-02-27T09:26:47;22.10;54.10
42885;DHT22;28534;48.100;11.584;2023-02-27T09:31:50;22.10;53.90
42885;DHT22;28534;48.100;11.584;2023-02-27T09:36:52;22.10;53.70
42885;DHT22;28534;48.100;11.584;2023-02-27T09:41:58;22.20;53.60
42885;DHT22;28534;48.100;11.584;2023-02-27T09:47:04;22.20;53.50
42885;DHT22;28534;48.100;11.584;2023-02-27T09:52:07;22.20;54.00
42885;DHT22;28534;48.100;11.584;2023-02-27T09:57:14;22.20;53.40
42885;DHT22;28534;48.100;11.584;2023-02-27T10:02:29;22.20;53.30
42885;DHT22;28534;48.100;11.584;2023-02-27T10:07:39;22.30;53.40
42885;DHT22;28534;48.100;11.584;2023-02-27T10:12:51;22.30;53.40
42885;DHT22;28534;48.100;11.584;2023-02-27T10:17:59;22.40;53.60
42885;DHT22;28534;48.100;11.584;2023-02-27T10:23:05;22.40;53.70
42885;DHT22;28534;48.100;11.584;2023-02-27T10:28:13;22.20;54.00
42885;DHT22;28534;48.100;11.584;2023-02-27T10:33:21;22.20;54.20
42885;DHT22;28534;48.100;11.584;2023-02-27T10:38:30;22.20;54.30
42885;DHT22;28534;48.100;11.584;2023-02-27T10:43:32;22.30;54.30
42885;DHT22;28534;48.100;11.584;2023-02-27T10:48:35;22.30;54.30
42885;DHT22;28534;48.100;11.584;2023-02-27T10:53:37;22.30;54.30
42885;DHT22;28534;48.100;11.584;2023-02-27T10:58:39;22.30;55.00
42885;DHT22;28534;48.100;11.584;2023-02-27T11:03:43;22.30;54.50
42885;DHT22;28534;48.100;11.584;2023-02-27T11:09:12;22.30;54.60
42885;DHT22;28534;48.100;11.584;2023-02-27T11:14:27;22.20;54.80
42885;DHT22;28534;48.100;11.584;2023-02-27T11:19:33;22.20;54.90
42885;DHT22;28534;48.100;11.584;2023-02-27T11:24:35;22.20;55.00
42885;DHT22;28534;48.100;11.584;2023-02-27T11:29:37;22.20;54.90
42885;DHT22;28534;48.100;11.584;2023-02-27T11:34:56;22.20;55.00
42885;DHT22;28534;48.100;11.584;2023-02-27T11:40:12;22.20;55.00
42885;DHT22;28534;48.100;11.584;2023-02-27T11:45:26;22.20;55.10
42885;DHT22;28534;48.100;11.584;2023-02-27T11:51:05;22.30;55.50
42885;DHT22;28534;48.100;11.584;2023-02-27T11:56:10;22.30;55.60
42885;DHT22;28534;48.100;11.584;2023-02-27T12:01:17;22.30;55.70
42885;DHT22;28534;48.100;11.584;2023-02-27T12:06:27;22.30;55.80
42885;DHT22;28534;48.100;11.584;2023-02-27T12:11:33;22.30;55.90
42885;DHT22;28534;48.100;11.584;2023-02-27T12:16:38;22.30;56.20
42885;DHT22;28534;48.100;11.584;2023-02-27T12:21:44;22.20;56.40
42885;DHT22;28534;48.100;11.584;2023-02-27T12:26:47;22.20;56.40
42885;DHT22;28534;48.100;11.584;2023-02-27T12:31:54;22.10;56.80
42885;DHT22;28534;48.100;11.584;2023-02-27T12:37:03;22.10;55.90
42885;DHT22;28534;48.100;11.584;2023-02-27T12:47:50;22.20;55.20
42885;DHT22;28534;48.100;11.584;2023-02-27T12:53:01;22.30;55.10
42885;DHT22;28534;48.100;11.584;2023-02-27T12:58:20;22.20;55.20
42885;DHT22;28534;48.100;11.584;2023-02-27T13:03:29;22.20;55.20
42885;DHT22;28534;48.100;11.584;2023-02-27T13:08:51;22.20;55.20
42885;DHT22;28534;48.100;11.584;2023-02-27T13:13:59;22.20;55.30
42885;DHT22;28534;48.100;11.584;2023-02-27T13:19:05;22.20;55.30
42885;DHT22;28534;48.100;11.584;2023-02-27T13:24:21;22.30;55.30
42885;DHT22;28534;48.100;11.584;2023-02-27T13:29:32;22.30;55.30
42885;DHT22;28534;48.100;11.584;2023-02-27T13:34:38;22.30;55.30
42885;DHT22;28534;48.100;11.584;2023-02-27T13:39:54;22.30;55.20
42885;DHT22;28534;48.100;11.584;2023-02-27T13:45:02;22.30;55.30
42885;DHT22;28534;48.100;11.584;2023-02-27T13:55:41;22.20;55.50
42885;DHT22;28534;48.100;11.584;2023-02-27T14:00:53;22.10;55.50
42885;DHT22;28534;48.100;11.584;2023-02-27T14:06:00;22.10;55.00
42885;DHT22;28534;48.100;11.584;2023-02-27T14:11:15;22.10;55.20
42885;DHT22;28534;48.100;11.584;2023-02-27T14:16:51;22.10;55.10
42885;DHT22;28534;48.100;11.584;2023-02-27T14:21:55;22.20;55.20
42885;DHT22;28534;48.100;11.584;2023-02-27T14:27:00;22.20;55.30
42885;DHT22;28534;48.100;11.584;2023-02-27T14:32:04;22.30;55.40
42885;DHT22;28534;48.100;11.584;2023-02-27T14:37:12;22.30;55.30
42885;DHT22;28534;48.100;11.584;2023-02-27T14:42:39;22.40;55.30
42885;DHT22;28534;48.100;11.584;2023-02-27T14:47:45;22.30;55.20
42885;DHT22;28534;48.100;11.584;2023-02-27T14:52:47;22.30;55.20
42885;DHT22;28534;48.100;11.584;2023-02-27T14:57:58;22.20;55.30
42885;DHT22;28534;48.100;11.584;2023-02-27T15:03:15;22.10;55.30
42885;DHT22;28534;48.100;11.584;2023-02-27T15:08:20;22.10;55.30
42885;DHT22;28534;48.100;11.584;2023-02-27T15:13:28;22.20;55.20
42885;DHT22;28534;48.100;11.584;2023-02-27T15:18:30;22.20;55.30
42885;DHT22;28534;48.100;11.584;2023-02-27T15:23:32;22.20;55.20
42885;DHT22;28534;48.100;11.584;2023-02-27T15:28:36;22.10;55.20
42885;DHT22;28534;48.100;11.584;2023-02-27T15:33:40;22.10;55.50
42885;DHT22;28534;48.100;11.584;2023-02-27T15:38:42;22.10;55.60
42885;DHT22;28534;48.100;11.584;2023-02-27T15:43:46;22.10;55.80
42885;DHT22;28534;48.100;11.584;2023-02-27T15:48:48;22.10;55.90
42885;DHT22;28534;48.100;11.584;2023-02-27T15:53:54;22.10;56.00
42885;DHT22;28534;48.100;11.584;2023-02-27T15:59:00;22.10;56.10
42885;DHT22;28534;48.100;11.584;2023-02-27T16:04:04;22.00;56.10
42885;DHT22;28534;48.100;11.584;2023-02-27T16:09:19;22.10;56.10
42885;DHT22;28534;48.100;11.584;2023-02-27T16:14:37;22.00;56.10
42885;DHT22;28534;48.100;11.584;2023-02-27T16:19:40;22.00;56.10
42885;DHT22;28534;48.100;11.584;2023-02-27T16:24:43;22.10;56.00
42885;DHT22;28534;48.100;11.584;2023-02-27T16:29:46;22.20;57.40
42885;DHT22;28534;48.100;11.584;2023-02-27T16:34:48;22.20;57.70
42885;DHT22;28534;48.100;11.584;2023-02-27T16:39:51;22.30;59.60
42885;DHT22;28534;48.100;11.584;2023-02-27T16:44:55;22.30;63.20
42885;DHT22;28534;48.100;11.584;2023-02-27T16:49:56;22.20;62.70
42885;DHT22;28534;48.100;11.584;2023-02-27T16:54:58;22.20;61.80
42885;DHT22;28534;48.100;11.584;2023-02-27T17:00:03;22.20;60.30
42885;DHT22;28534;48.100;11.584;2023-02-27T17:05:07;22.10;60.50
42885;DHT22;28534;48.100;11.584;2023-02-27T17:10:13;22.10;59.50
42885;DHT22;28534;48.100;11.584;2023-02-27T17:15:17;22.10;59.00
42885;DHT22;28534;48.100;11.584;2023-02-27T17:20:18;22.00;56.80
42885;DHT22;28534;48.100;11.584;2023-02-27T17:25:21;22.00;56.20
42885;DHT22;28534;48.100;11.584;2023-02-27T17:30:24;21.90;55.80
42885;DHT22;28534;48.100;11.584;2023-02-27T17:35:26;21.90;55.30
42885;DHT22;28534;48.100;11.584;2023-02-27T17:40:29;21.90;55.10
42885;DHT22;28534;48.100;11.584;2023-02-27T17:45:32;21.90;55.20
42885;DHT22;28534;48.100;11.584;2023-02-27T17:50:34;21.80;55.10
42885;DHT22;28534;48.100;11.584;2023-02-27T17:55:38;21.70;55.30
42885;DHT22;28534;48.100;11.584;2023-02-27T18:00:41;21.70;55.00
42885;DHT22;28534;48.100;11.584;2023-02-27T18:05:47;21.60;55.60
42885;DHT22;28534;48.100;11.584;2023-02-27T18:10:50;21.60;55.80
42885;DHT22;28534;48.100;11.584;2023-02-27T18:15:53;21.60;56.20
42885;DHT22;28534;48.100;11.584;2023-02-27T18:21:00;21.60;56.50
42885;DHT22;28534;48.100;11.584;2023-02-27T18:26:02;21.60;56.70
42885;DHT22;28534;48.100;11.584;2023-02-27T18:31:05;21.50;56.80
42885;DHT22;28534;48.100;11.584;2023-02-27T18:36:07;21.50;57.00
42885;DHT22;28534;48.100;11.584;2023-02-27T18:41:09;21.50;57.80
42885;DHT22;28534;48.100;11.584;2023-02-27T18:46:13;21.40;57.30
42885;DHT22;28534;48.100;11.584;2023-02-27T18:51:15;21.40;57.40
42885;DHT22;28534;48.100;11.584;2023-02-27T18:56:18;21.40;57.50
42885;DHT22;28534;48.100;11.584;2023-02-27T19:01:25;21.40;57.50
42885;DHT22;28534;48.100;11.584;2023-02-27T19:06:28;21.40;57.60
42885;DHT22;28534;48.100;11.584;2023-02-27T19:11:31;21.40;57.70
42885;DHT22;28534;48.100;11.584;2023-02-27T19:16:34;21.30;57.70
42885;DHT22;28534;48.100;11.584;2023-02-27T19:21:36;21.30;58.30
42885;DHT22;28534;48.100;11.584;2023-02-27T19:26:39;21.30;57.80
42885;DHT22;28534;48.100;11.584;2023-02-27T19:31:42;21.20;48.30
42885;DHT22;28534;48.100;11.584;2023-02-27T19:36:45;20.20;42.30
42885;DHT22;28534;48.100;11.584;2023-02-27T19:41:47;20.20;44.50
42885;DHT22;28534;48.100;11.584;2023-02-27T19:46:50;20.50;45.60
42885;DHT22;28534;48.100;11.584;2023-02-27T19:51:52;20.60;46.70
42885;DHT22;28534;48.100;11.584;2023-02-27T19:56:54;20.60;47.00
42885;DHT22;28534;48.100;11.584;2023-02-27T20:01:57;20.70;47.80
42885;DHT22;28534;48.100;11.584;2023-02-27T20:06:59;20.70;48.50
42885;DHT22;28534;48.100;11.584;2023-02-27T20:12:01;20.70;49.10
42885;DHT22;28534;48.100;11.584;2023-02-27T20:17:04;20.70;49.40
42885;DHT22;28534;48.100;11.584;2023-02-27T20:22:07;20.70;49.80
42885;DHT22;28534;48.100;11.584;2023-02-27T20:27:09;20.70;50.20
42885;DHT22;28534;48.100;11.584;2023-02-27T20:32:12;20.70;50.50
42885;DHT22;28534;48.100;11.584;2023-02-27T20:37:14;20.70;50.80
42885;DHT22;28534;48.100;11.584;2023-02-27T20:42:16;20.70;51.00
42885;DHT22;28534;48.100;11.584;2023-02-27T20:47:19;20.70;51.30
42885;DHT22;28534;48.100;11.584;2023-02-27T20:52:20;20.70;51.50
42885;DHT22;28534;48.100;11.584;2023-02-27T20:57:22;20.70;51.70
42885;DHT22;28534;48.100;11.584;2023-02-27T21:02:25;20.70;51.90
42885;DHT22;28534;48.100;11.584;2023-02-27T21:07:27;20.70;52.00
42885;DHT22;28534;48.100;11.584;2023-02-27T21:12:29;20.70;52.20
42885;DHT22;28534;48.100;11.584;2023-02-27T21:17:34;20.70;52.30
42885;DHT22;28534;48.100;11.584;2023-02-27T21:22:35;20.60;52.40
42885;DHT22;28534;48.100;11.584;2023-02-27T21:27:37;20.60;52.50
42885;DHT22;28534;48.100;11.584;2023-02-27T21:32:40;20.60;52.70
42885;DHT22;28534;48.100;11.584;2023-02-27T21:37:42;20.60;52.70
42885;DHT22;28534;48.100;11.584;2023-02-27T21:42:47;20.60;52.90
42885;DHT22;28534;48.100;11.584;2023-02-27T21:47:51;20.60;53.00
42885;DHT22;28534;48.100;11.584;2023-02-27T21:52:53;20.60;53.10
42885;DHT22;28534;48.100;11.584;2023-02-27T21:57:55;20.60;53.30
42885;DHT22;28534;48.100;11.584;2023-02-27T22:02:58;20.60;53.30
42885;DHT22;28534;48.100;11.584;2023-02-27T22:07:59;20.60;53.40
42885;DHT22;28534;48.100;11.584;2023-02-27T22:13:02;20.60;53.50
42885;DHT22;28534;48.100;11.584;2023-02-27T22:18:05;20.60;53.60
42885;DHT22;28534;48.100;11.584;2023-02-27T22:23:07;20.60;53.70
42885;DHT22;28534;48.100;11.584;2023-02-27T22:28:08;20.60;53.80
42885;DHT22;28534;48.100;11.584;2023-02-27T22:33:11;20.60;53.80
42885;DHT22;28534;48.100;11.584;2023-02-27T22:38:13;20.60;53.90
42885;DHT22;28534;48.100;11.584;2023-02-27T22:43:15;20.50;53.90
42885;DHT22;28534;48.100;11.584;2023-02-27T22:48:18;20.50;53.90
42885;DHT22;28534;48.100;11.584;2023-02-27T22:53:20;20.50;54.00
42885;DHT22;28534;48.100;11.584;2023-02-27T22:58:22;20.50;54.00
42885;DHT22;28534;48.100;11.584;2023-02-27T23:03:25;20.50;54.10
42885;DHT22;28534;48.100;11.584;2023-02-27T23:08:27;20.50;54.20
42885;DHT22;28534;48.100;11.584;2023-02-27T23:13:29;20.50;54.20
42885;DHT22;28534;48.100;11.584;2023-02-27T23:18:32;20.50;54.30
42885;DHT22;28534;48.100;11.584;2023-02-27T23:23:35;20.50;54.40
42885;DHT22;28534;48.100;11.584;2023-02-27T23:28:37;20.50;54.30
42885;DHT22;28534;48.100;11.584;2023-02-27T23:33:40;20.50;54.30
42885;DHT22;28534;48.100;11.584;2023-02-27T23:38:42;20.50;54.40
42885;DHT22;28534;48.100;11.584;2023-02-27T23:43:46;20.50;54.40
42885;DHT22;28534;48.100;11.584;2023-02-27T23:48:49;20.50;54.40
42885;DHT22;28534;48.100;11.584;2023-02-27T23:53:51;20.50;54.50
42885;DHT22;28534;48.100;11.584;2023-02-27T23:58:53;20.50;54.60
